sensor_id;sensor_type;location;lat;lon;timestamp;P1;durP1;ratioP1;P2;durP2;ratioP2
33190;SDS011;19554;42.652;23.364;2022-07-29T00:00:58;10.18;;;8.30;;
33190;SDS011;19554;42.652;23.364;2022-07-29T00:03:23;10.13;;;8.32;;
33190;SDS011;19554;42.652;23.364;2022-07-29T00:05:49;10.43;;;8.00;;
33190;SDS011;19554;42.652;23.364;2022-07-29T00:08:14;10.98;;;8.57;;
33190;SDS011;19554;42.652;23.364;2022-07-29T00:10:40;9.70;;;8.05;;
33190;SDS011;19554;42.652;23.364;2022-07-29T00:13:07;8.50;;;7.57;;
33190;SDS011;19554;42.652;23.364;2022-07-29T00:15:33;8.82;;;7.93;;
33190;SDS011;19554;42.652;23.364;2022-07-29T00:17:59;12.60;;;7.68;;
33190;SDS011;19554;42.652;23.364;2022-07-29T00:20:24;8.30;;;7.50;;
33190;SDS011;19554;42.652;23.364;2022-07-29T00:22:49;11.20;;;8.43;;
33190;SDS011;19554;42.652;23.364;2022-07-29T00:25:15;10.20;;;8.80;;
33190;SDS011;19554;42.652;23.364;2022-07-29T00:27:40;10.52;;;8.20;;
33190;SDS011;19554;42.652;23.364;2022-07-29T00:30:06;10.48;;;8.68;;
33190;SDS011;19554;42.652;23.364;2022-07-29T00:32:32;9.73;;;8.13;;
33190;SDS011;19554;42.652;23.364;2022-07-29T00:34:58;10.88;;;8.98;;
33190;SDS011;19554;42.652;23.364;2022-07-29T00:37:42;11.00;;;8.40;;
33190;SDS011;19554;42.652;23.364;2022-07-29T00:40:08;10.20;;;9.18;;
33190;SDS011;19554;42.652;23.364;2022-07-29T00:42:46;11.82;;;8.38;;
33190;SDS011;19554;42.652;23.364;2022-07-29T00:45:14;9.55;;;7.35;;
33190;SDS011;19554;42.652;23.364;2022-07-29T00:47:40;9.18;;;8.18;;
33190;SDS011;19554;42.652;23.364;2022-07-29T00:50:06;10.02;;;8.35;;
33190;SDS011;19554;42.652;23.364;2022-07-29T00:52:34;8.90;;;7.85;;
33190;SDS011;19554;42.652;23.364;2022-07-29T00:55:02;13.43;;;8.75;;
33190;SDS011;19554;42.652;23.364;2022-07-29T00:57:29;11.90;;;8.60;;
33190;SDS011;19554;42.652;23.364;2022-07-29T00:59:55;13.07;;;8.90;;
33190;SDS011;19554;42.652;23.364;2022-07-29T01:02:20;8.90;;;7.93;;
33190;SDS011;19554;42.652;23.364;2022-07-29T01:04:46;10.20;;;8.55;;
33190;SDS011;19554;42.652;23.364;2022-07-29T01:07:11;11.50;;;8.15;;
33190;SDS011;19554;42.652;23.364;2022-07-29T01:09:38;12.27;;;8.43;;
33190;SDS011;19554;42.652;23.364;2022-07-29T01:12:04;11.27;;;8.35;;
33190;SDS011;19554;42.652;23.364;2022-07-29T01:14:30;9.35;;;7.57;;
33190;SDS011;19554;42.652;23.364;2022-07-29T01:17:31;8.75;;;7.85;;
33190;SDS011;19554;42.652;23.364;2022-07-29T01:19:59;11.38;;;8.65;;
33190;SDS011;19554;42.652;23.364;2022-07-29T01:30:25;9.45;;;8.15;;
33190;SDS011;19554;42.652;23.364;2022-07-29T01:32:53;12.85;;;7.72;;
33190;SDS011;19554;42.652;23.364;2022-07-29T01:35:42;11.75;;;8.45;;
33190;SDS011;19554;42.652;23.364;2022-07-29T01:38:12;10.32;;;8.10;;
33190;SDS011;19554;42.652;23.364;2022-07-29T01:40:52;15.05;;;8.02;;
33190;SDS011;19554;42.652;23.364;2022-07-29T01:43:25;10.80;;;8.38;;
33190;SDS011;19554;42.652;23.364;2022-07-29T01:45:57;12.25;;;8.48;;
33190;SDS011;19554;42.652;23.364;2022-07-29T01:51:21;13.18;;;9.20;;
33190;SDS011;19554;42.652;23.364;2022-07-29T01:54:04;11.48;;;8.30;;
33190;SDS011;19554;42.652;23.364;2022-07-29T01:56:36;10.50;;;8.20;;
33190;SDS011;19554;42.652;23.364;2022-07-29T01:59:04;11.05;;;8.15;;
33190;SDS011;19554;42.652;23.364;2022-07-29T02:01:32;14.30;;;8.95;;
33190;SDS011;19554;42.652;23.364;2022-07-29T02:03:59;11.40;;;8.13;;
33190;SDS011;19554;42.652;23.364;2022-07-29T02:06:28;10.35;;;9.25;;
33190;SDS011;19554;42.652;23.364;2022-07-29T02:08:57;11.60;;;8.50;;
33190;SDS011;19554;42.652;23.364;2022-07-29T02:11:24;16.30;;;7.65;;
33190;SDS011;19554;42.652;23.364;2022-07-29T02:13:50;11.95;;;8.40;;
33190;SDS011;19554;42.652;23.364;2022-07-29T02:16:20;13.63;;;7.78;;
33190;SDS011;19554;42.652;23.364;2022-07-29T02:18:47;12.10;;;8.13;;
33190;SDS011;19554;42.652;23.364;2022-07-29T02:21:17;10.95;;;7.85;;
33190;SDS011;19554;42.652;23.364;2022-07-29T02:23:46;13.82;;;7.72;;
33190;SDS011;19554;42.652;23.364;2022-07-29T02:26:13;9.27;;;8.25;;
33190;SDS011;19554;42.652;23.364;2022-07-29T02:28:39;12.10;;;8.55;;
33190;SDS011;19554;42.652;23.364;2022-07-29T02:31:06;12.00;;;8.18;;
33190;SDS011;19554;42.652;23.364;2022-07-29T02:33:33;12.88;;;8.20;;
33190;SDS011;19554;42.652;23.364;2022-07-29T02:35:59;14.77;;;8.02;;
33190;SDS011;19554;42.652;23.364;2022-07-29T02:38:27;15.63;;;8.73;;
33190;SDS011;19554;42.652;23.364;2022-07-29T02:41:57;11.77;;;8.07;;
33190;SDS011;19554;42.652;23.364;2022-07-29T02:44:16;14.27;;;8.77;;
33190;SDS011;19554;42.652;23.364;2022-07-29T02:46:45;12.90;;;8.23;;
33190;SDS011;19554;42.652;23.364;2022-07-29T02:51:43;9.05;;;7.93;;
33190;SDS011;19554;42.652;23.364;2022-07-29T02:54:20;8.02;;;7.13;;
33190;SDS011;19554;42.652;23.364;2022-07-29T02:56:53;14.02;;;7.57;;
33190;SDS011;19554;42.652;23.364;2022-07-29T02:59:23;9.75;;;7.97;;
33190;SDS011;19554;42.652;23.364;2022-07-29T03:01:52;9.82;;;7.47;;
33190;SDS011;19554;42.652;23.364;2022-07-29T03:04:19;11.15;;;7.50;;
33190;SDS011;19554;42.652;23.364;2022-07-29T03:06:47;9.90;;;7.78;;
33190;SDS011;19554;42.652;23.364;2022-07-29T03:09:14;10.27;;;8.05;;
33190;SDS011;19554;42.652;23.364;2022-07-29T03:11:41;9.57;;;8.60;;
33190;SDS011;19554;42.652;23.364;2022-07-29T03:14:08;9.70;;;8.70;;
33190;SDS011;19554;42.652;23.364;2022-07-29T03:16:33;12.30;;;8.80;;
33190;SDS011;19554;42.652;23.364;2022-07-29T03:19:01;12.70;;;9.45;;
33190;SDS011;19554;42.652;23.364;2022-07-29T03:21:29;17.95;;;10.48;;
33190;SDS011;19554;42.652;23.364;2022-07-29T03:23:54;12.10;;;10.82;;
33190;SDS011;19554;42.652;23.364;2022-07-29T03:26:20;12.18;;;10.05;;
33190;SDS011;19554;42.652;23.364;2022-07-29T03:28:45;14.23;;;10.80;;
33190;SDS011;19554;42.652;23.364;2022-07-29T03:31:11;15.43;;;11.35;;
33190;SDS011;19554;42.652;23.364;2022-07-29T03:33:36;16.15;;;11.65;;
33190;SDS011;19554;42.652;23.364;2022-07-29T03:36:02;17.52;;;11.30;;
33190;SDS011;19554;42.652;23.364;2022-07-29T03:38:27;14.70;;;10.75;;
33190;SDS011;19554;42.652;23.364;2022-07-29T03:40:56;15.98;;;11.82;;
33190;SDS011;19554;42.652;23.364;2022-07-29T03:43:26;21.02;;;11.63;;
33190;SDS011;19554;42.652;23.364;2022-07-29T03:45:57;15.25;;;11.73;;
33190;SDS011;19554;42.652;23.364;2022-07-29T03:48:23;19.95;;;11.65;;
33190;SDS011;19554;42.652;23.364;2022-07-29T03:50:51;19.60;;;12.15;;
33190;SDS011;19554;42.652;23.364;2022-07-29T03:53:17;17.08;;;11.95;;
33190;SDS011;19554;42.652;23.364;2022-07-29T03:55:44;15.68;;;11.65;;
33190;SDS011;19554;42.652;23.364;2022-07-29T03:58:13;15.68;;;11.88;;
33190;SDS011;19554;42.652;23.364;2022-07-29T04:00:41;15.20;;;11.82;;
33190;SDS011;19554;42.652;23.364;2022-07-29T04:03:07;13.90;;;11.20;;
33190;SDS011;19554;42.652;23.364;2022-07-29T04:05:34;16.42;;;11.52;;
33190;SDS011;19554;42.652;23.364;2022-07-29T04:07:59;16.85;;;10.50;;
33190;SDS011;19554;42.652;23.364;2022-07-29T04:10:26;13.88;;;10.13;;
33190;SDS011;19554;42.652;23.364;2022-07-29T04:12:51;12.38;;;9.63;;
33190;SDS011;19554;42.652;23.364;2022-07-29T04:15:17;11.30;;;9.02;;
33190;SDS011;19554;42.652;23.364;2022-07-29T04:17:43;16.65;;;8.10;;
33190;SDS011;19554;42.652;23.364;2022-07-29T04:20:08;10.43;;;6.70;;
33190;SDS011;19554;42.652;23.364;2022-07-29T04:22:37;9.23;;;7.03;;
33190;SDS011;19554;42.652;23.364;2022-07-29T04:25:03;9.23;;;6.47;;
33190;SDS011;19554;42.652;23.364;2022-07-29T04:27:28;9.77;;;7.43;;
33190;SDS011;19554;42.652;23.364;2022-07-29T04:29:54;13.82;;;7.43;;
33190;SDS011;19554;42.652;23.364;2022-07-29T04:32:19;9.27;;;7.05;;
33190;SDS011;19554;42.652;23.364;2022-07-29T04:34:44;8.73;;;6.90;;
33190;SDS011;19554;42.652;23.364;2022-07-29T04:37:11;8.57;;;6.50;;
33190;SDS011;19554;42.652;23.364;2022-07-29T04:39:37;11.23;;;7.22;;
33190;SDS011;19554;42.652;23.364;2022-07-29T04:42:03;11.05;;;6.75;;
33190;SDS011;19554;42.652;23.364;2022-07-29T04:44:28;7.68;;;6.20;;
33190;SDS011;19554;42.652;23.364;2022-07-29T04:46:54;12.15;;;6.32;;
33190;SDS011;19554;42.652;23.364;2022-07-29T04:49:19;8.82;;;5.68;;
33190;SDS011;19554;42.652;23.364;2022-07-29T04:51:45;11.55;;;6.78;;
33190;SDS011;19554;42.652;23.364;2022-07-29T04:54:10;9.10;;;6.20;;
33190;SDS011;19554;42.652;23.364;2022-07-29T04:56:36;11.02;;;7.72;;
33190;SDS011;19554;42.652;23.364;2022-07-29T04:59:01;9.63;;;5.95;;
33190;SDS011;19554;42.652;23.364;2022-07-29T05:01:27;7.60;;;5.57;;
33190;SDS011;19554;42.652;23.364;2022-07-29T05:03:52;9.93;;;5.65;;
33190;SDS011;19554;42.652;23.364;2022-07-29T05:06:17;14.82;;;6.50;;
33190;SDS011;19554;42.652;23.364;2022-07-29T05:08:43;7.72;;;6.43;;
33190;SDS011;19554;42.652;23.364;2022-07-29T05:11:08;6.63;;;5.95;;
33190;SDS011;19554;42.652;23.364;2022-07-29T05:13:34;7.82;;;5.80;;
33190;SDS011;19554;42.652;23.364;2022-07-29T05:15:59;7.32;;;6.15;;
33190;SDS011;19554;42.652;23.364;2022-07-29T05:18:25;10.48;;;6.43;;
33190;SDS011;19554;42.652;23.364;2022-07-29T05:20:50;9.68;;;6.15;;
33190;SDS011;19554;42.652;23.364;2022-07-29T05:23:16;6.72;;;6.10;;
33190;SDS011;19554;42.652;23.364;2022-07-29T05:25:42;10.90;;;6.35;;
33190;SDS011;19554;42.652;23.364;2022-07-29T05:28:07;7.85;;;6.03;;
33190;SDS011;19554;42.652;23.364;2022-07-29T05:30:32;10.25;;;6.03;;
33190;SDS011;19554;42.652;23.364;2022-07-29T05:32:58;11.55;;;6.63;;
33190;SDS011;19554;42.652;23.364;2022-07-29T05:35:24;10.48;;;6.38;;
33190;SDS011;19554;42.652;23.364;2022-07-29T05:37:49;11.30;;;6.20;;
33190;SDS011;19554;42.652;23.364;2022-07-29T05:40:15;12.90;;;6.43;;
33190;SDS011;19554;42.652;23.364;2022-07-29T05:42:40;9.70;;;6.82;;
33190;SDS011;19554;42.652;23.364;2022-07-29T05:45:06;8.55;;;6.95;;
33190;SDS011;19554;42.652;23.364;2022-07-29T05:47:32;8.43;;;7.30;;
33190;SDS011;19554;42.652;23.364;2022-07-29T05:49:57;11.18;;;7.00;;
33190;SDS011;19554;42.652;23.364;2022-07-29T05:52:22;7.32;;;6.63;;
33190;SDS011;19554;42.652;23.364;2022-07-29T05:54:48;8.35;;;6.65;;
33190;SDS011;19554;42.652;23.364;2022-07-29T05:57:20;9.05;;;7.22;;
33190;SDS011;19554;42.652;23.364;2022-07-29T05:59:47;12.48;;;6.82;;
33190;SDS011;19554;42.652;23.364;2022-07-29T06:02:13;8.57;;;6.95;;
33190;SDS011;19554;42.652;23.364;2022-07-29T06:04:39;8.57;;;6.22;;
33190;SDS011;19554;42.652;23.364;2022-07-29T06:07:04;7.95;;;6.32;;
33190;SDS011;19554;42.652;23.364;2022-07-29T06:09:30;11.45;;;7.35;;
33190;SDS011;19554;42.652;23.364;2022-07-29T06:11:55;12.35;;;7.78;;
33190;SDS011;19554;42.652;23.364;2022-07-29T06:14:22;14.80;;;8.23;;
33190;SDS011;19554;42.652;23.364;2022-07-29T06:16:48;12.10;;;7.28;;
33190;SDS011;19554;42.652;23.364;2022-07-29T06:19:13;10.50;;;7.07;;
33190;SDS011;19554;42.652;23.364;2022-07-29T06:21:42;14.95;;;7.63;;
33190;SDS011;19554;42.652;23.364;2022-07-29T06:24:10;10.65;;;6.97;;
33190;SDS011;19554;42.652;23.364;2022-07-29T06:26:35;9.02;;;6.75;;
33190;SDS011;19554;42.652;23.364;2022-07-29T06:29:01;10.57;;;7.03;;
33190;SDS011;19554;42.652;23.364;2022-07-29T06:31:26;6.95;;;5.97;;
33190;SDS011;19554;42.652;23.364;2022-07-29T06:33:51;14.43;;;7.03;;
33190;SDS011;19554;42.652;23.364;2022-07-29T06:36:17;7.63;;;6.93;;
33190;SDS011;19554;42.652;23.364;2022-07-29T06:38:43;8.65;;;5.97;;
33190;SDS011;19554;42.652;23.364;2022-07-29T06:41:08;9.80;;;6.72;;
33190;SDS011;19554;42.652;23.364;2022-07-29T06:43:41;14.23;;;6.90;;
33190;SDS011;19554;42.652;23.364;2022-07-29T06:46:11;7.63;;;6.88;;
33190;SDS011;19554;42.652;23.364;2022-07-29T06:48:39;7.80;;;6.00;;
33190;SDS011;19554;42.652;23.364;2022-07-29T06:51:05;11.55;;;6.47;;
33190;SDS011;19554;42.652;23.364;2022-07-29T06:53:31;9.50;;;6.43;;
33190;SDS011;19554;42.652;23.364;2022-07-29T06:55:58;8.32;;;6.80;;
33190;SDS011;19554;42.652;23.364;2022-07-29T06:58:25;11.85;;;6.38;;
33190;SDS011;19554;42.652;23.364;2022-07-29T07:00:51;9.98;;;6.60;;
33190;SDS011;19554;42.652;23.364;2022-07-29T07:03:17;10.82;;;6.53;;
33190;SDS011;19554;42.652;23.364;2022-07-29T07:05:43;12.20;;;7.28;;
33190;SDS011;19554;42.652;23.364;2022-07-29T07:08:09;7.10;;;6.47;;
33190;SDS011;19554;42.652;23.364;2022-07-29T07:10:35;7.63;;;6.30;;
33190;SDS011;19554;42.652;23.364;2022-07-29T07:13:01;9.18;;;5.82;;
33190;SDS011;19554;42.652;23.364;2022-07-29T07:15:27;6.70;;;5.63;;
33190;SDS011;19554;42.652;23.364;2022-07-29T07:17:53;6.22;;;5.30;;
33190;SDS011;19554;42.652;23.364;2022-07-29T07:20:18;6.95;;;5.63;;
33190;SDS011;19554;42.652;23.364;2022-07-29T07:22:44;7.50;;;5.78;;
33190;SDS011;19554;42.652;23.364;2022-07-29T07:25:10;6.85;;;5.57;;
33190;SDS011;19554;42.652;23.364;2022-07-29T07:27:36;5.68;;;5.07;;
33190;SDS011;19554;42.652;23.364;2022-07-29T07:30:06;6.10;;;4.35;;
33190;SDS011;19554;42.652;23.364;2022-07-29T07:32:33;5.93;;;4.90;;
33190;SDS011;19554;42.652;23.364;2022-07-29T07:34:58;6.25;;;4.70;;
33190;SDS011;19554;42.652;23.364;2022-07-29T07:37:24;7.05;;;4.05;;
33190;SDS011;19554;42.652;23.364;2022-07-29T07:39:50;5.65;;;4.32;;
33190;SDS011;19554;42.652;23.364;2022-07-29T07:42:16;5.40;;;4.47;;
33190;SDS011;19554;42.652;23.364;2022-07-29T07:44:42;4.95;;;4.47;;
33190;SDS011;19554;42.652;23.364;2022-07-29T07:47:08;10.55;;;5.07;;
33190;SDS011;19554;42.652;23.364;2022-07-29T07:49:34;5.97;;;4.07;;
33190;SDS011;19554;42.652;23.364;2022-07-29T07:51:59;5.97;;;4.45;;
33190;SDS011;19554;42.652;23.364;2022-07-29T07:54:24;6.15;;;4.25;;
33190;SDS011;19554;42.652;23.364;2022-07-29T07:56:50;4.85;;;4.00;;
33190;SDS011;19554;42.652;23.364;2022-07-29T07:59:16;7.00;;;5.10;;
33190;SDS011;19554;42.652;23.364;2022-07-29T08:01:42;8.15;;;4.10;;
33190;SDS011;19554;42.652;23.364;2022-07-29T08:04:08;4.30;;;3.88;;
33190;SDS011;19554;42.652;23.364;2022-07-29T08:06:34;4.55;;;4.15;;
33190;SDS011;19554;42.652;23.364;2022-07-29T08:09:03;6.82;;;4.50;;
33190;SDS011;19554;42.652;23.364;2022-07-29T08:11:29;5.40;;;3.97;;
33190;SDS011;19554;42.652;23.364;2022-07-29T08:13:54;4.47;;;4.07;;
33190;SDS011;19554;42.652;23.364;2022-07-29T08:16:20;4.90;;;4.05;;
33190;SDS011;19554;42.652;23.364;2022-07-29T08:18:45;10.02;;;4.75;;
33190;SDS011;19554;42.652;23.364;2022-07-29T08:21:12;7.60;;;4.18;;
33190;SDS011;19554;42.652;23.364;2022-07-29T08:23:38;5.50;;;4.10;;
33190;SDS011;19554;42.652;23.364;2022-07-29T08:26:07;6.97;;;3.58;;
33190;SDS011;19554;42.652;23.364;2022-07-29T08:28:38;6.07;;;3.90;;
33190;SDS011;19554;42.652;23.364;2022-07-29T08:31:05;6.55;;;4.32;;
33190;SDS011;19554;42.652;23.364;2022-07-29T08:33:31;5.47;;;3.95;;
33190;SDS011;19554;42.652;23.364;2022-07-29T08:35:57;6.15;;;3.45;;
33190;SDS011;19554;42.652;23.364;2022-07-29T08:38:23;5.70;;;3.58;;
33190;SDS011;19554;42.652;23.364;2022-07-29T08:40:48;5.40;;;3.10;;
33190;SDS011;19554;42.652;23.364;2022-07-29T08:43:14;8.02;;;4.00;;
33190;SDS011;19554;42.652;23.364;2022-07-29T08:45:43;7.68;;;3.75;;
33190;SDS011;19554;42.652;23.364;2022-07-29T08:48:13;4.57;;;3.65;;
33190;SDS011;19554;42.652;23.364;2022-07-29T08:50:41;5.45;;;3.80;;
33190;SDS011;19554;42.652;23.364;2022-07-29T08:53:08;9.60;;;3.60;;
33190;SDS011;19554;42.652;23.364;2022-07-29T08:55:38;4.38;;;3.70;;
33190;SDS011;19554;42.652;23.364;2022-07-29T08:58:06;6.65;;;3.47;;
33190;SDS011;19554;42.652;23.364;2022-07-29T09:00:32;5.07;;;3.75;;
33190;SDS011;19554;42.652;23.364;2022-07-29T09:03:00;3.85;;;3.45;;
33190;SDS011;19554;42.652;23.364;2022-07-29T09:05:27;5.13;;;4.00;;
33190;SDS011;19554;42.652;23.364;2022-07-29T09:07:53;6.32;;;3.63;;
33190;SDS011;19554;42.652;23.364;2022-07-29T09:10:19;5.55;;;4.10;;
33190;SDS011;19554;42.652;23.364;2022-07-29T09:12:45;3.97;;;3.17;;
33190;SDS011;19554;42.652;23.364;2022-07-29T09:15:10;4.47;;;3.63;;
33190;SDS011;19554;42.652;23.364;2022-07-29T09:17:40;5.25;;;3.33;;
33190;SDS011;19554;42.652;23.364;2022-07-29T09:20:13;7.25;;;3.63;;
33190;SDS011;19554;42.652;23.364;2022-07-29T09:22:40;4.00;;;3.50;;
33190;SDS011;19554;42.652;23.364;2022-07-29T09:25:05;5.38;;;3.72;;
33190;SDS011;19554;42.652;23.364;2022-07-29T09:27:31;4.63;;;3.92;;
33190;SDS011;19554;42.652;23.364;2022-07-29T09:29:59;6.65;;;4.03;;
33190;SDS011;19554;42.652;23.364;2022-07-29T09:32:32;4.70;;;3.90;;
33190;SDS011;19554;42.652;23.364;2022-07-29T09:35:22;6.93;;;3.95;;
33190;SDS011;19554;42.652;23.364;2022-07-29T09:37:50;4.47;;;3.90;;
33190;SDS011;19554;42.652;23.364;2022-07-29T09:40:20;5.18;;;4.53;;
33190;SDS011;19554;42.652;23.364;2022-07-29T09:42:53;7.72;;;4.03;;
33190;SDS011;19554;42.652;23.364;2022-07-29T09:45:40;5.75;;;3.90;;
33190;SDS011;19554;42.652;23.364;2022-07-29T09:50:50;5.32;;;4.35;;
33190;SDS011;19554;42.652;23.364;2022-07-29T09:56:02;9.45;;;4.80;;
33190;SDS011;19554;42.652;23.364;2022-07-29T09:58:29;6.35;;;4.40;;
33190;SDS011;19554;42.652;23.364;2022-07-29T10:00:54;4.68;;;3.90;;
33190;SDS011;19554;42.652;23.364;2022-07-29T10:03:21;6.32;;;4.10;;
33190;SDS011;19554;42.652;23.364;2022-07-29T10:06:10;4.38;;;3.80;;
33190;SDS011;19554;42.652;23.364;2022-07-29T10:08:38;11.33;;;4.37;;
33190;SDS011;19554;42.652;23.364;2022-07-29T10:11:10;7.82;;;4.57;;
33190;SDS011;19554;42.652;23.364;2022-07-29T10:13:40;7.50;;;4.47;;
33190;SDS011;19554;42.652;23.364;2022-07-29T10:16:06;5.55;;;3.88;;
33190;SDS011;19554;42.652;23.364;2022-07-29T10:18:33;5.32;;;4.00;;
33190;SDS011;19554;42.652;23.364;2022-07-29T10:20:59;8.50;;;5.40;;
33190;SDS011;19554;42.652;23.364;2022-07-29T10:23:26;6.82;;;5.50;;
33190;SDS011;19554;42.652;23.364;2022-07-29T10:25:53;6.05;;;5.40;;
33190;SDS011;19554;42.652;23.364;2022-07-29T10:28:19;7.28;;;6.03;;
33190;SDS011;19554;42.652;23.364;2022-07-29T10:30:44;7.03;;;5.38;;
33190;SDS011;19554;42.652;23.364;2022-07-29T10:33:21;8.00;;;4.95;;
33190;SDS011;19554;42.652;23.364;2022-07-29T10:36:19;9.77;;;4.72;;
33190;SDS011;19554;42.652;23.364;2022-07-29T10:44:50;5.78;;;5.28;;
33190;SDS011;19554;42.652;23.364;2022-07-29T10:47:21;6.63;;;4.68;;
33190;SDS011;19554;42.652;23.364;2022-07-29T10:52:23;4.25;;;3.85;;
33190;SDS011;19554;42.652;23.364;2022-07-29T10:54:52;4.35;;;3.72;;
33190;SDS011;19554;42.652;23.364;2022-07-29T11:05:07;4.03;;;3.47;;
33190;SDS011;19554;42.652;23.364;2022-07-29T11:07:36;3.80;;;3.50;;
33190;SDS011;19554;42.652;23.364;2022-07-29T11:15:09;7.60;;;4.45;;
33190;SDS011;19554;42.652;23.364;2022-07-29T11:23:22;5.57;;;4.75;;
33190;SDS011;19554;42.652;23.364;2022-07-29T11:31:54;5.80;;;4.18;;
33190;SDS011;19554;42.652;23.364;2022-07-29T11:47:25;4.38;;;3.90;;
33190;SDS011;19554;42.652;23.364;2022-07-29T11:49:53;4.22;;;3.80;;
33190;SDS011;19554;42.652;23.364;2022-07-29T11:52:21;5.47;;;4.07;;
33190;SDS011;19554;42.652;23.364;2022-07-29T11:54:47;5.97;;;4.63;;
33190;SDS011;19554;42.652;23.364;2022-07-29T11:57:19;5.90;;;4.50;;
33190;SDS011;19554;42.652;23.364;2022-07-29T11:59:46;5.65;;;4.50;;
33190;SDS011;19554;42.652;23.364;2022-07-29T12:02:12;7.00;;;4.80;;
33190;SDS011;19554;42.652;23.364;2022-07-29T12:04:51;6.00;;;4.75;;
33190;SDS011;19554;42.652;23.364;2022-07-29T12:07:18;8.05;;;4.75;;
33190;SDS011;19554;42.652;23.364;2022-07-29T12:09:52;9.43;;;4.80;;
33190;SDS011;19554;42.652;23.364;2022-07-29T12:12:18;6.30;;;4.97;;
33190;SDS011;19554;42.652;23.364;2022-07-29T12:14:44;5.93;;;5.25;;
33190;SDS011;19554;42.652;23.364;2022-07-29T12:17:28;6.70;;;5.97;;
33190;SDS011;19554;42.652;23.364;2022-07-29T12:19:56;4.97;;;4.40;;
33190;SDS011;19554;42.652;23.364;2022-07-29T12:22:26;6.28;;;4.57;;
33190;SDS011;19554;42.652;23.364;2022-07-29T12:27:19;11.18;;;5.28;;
33190;SDS011;19554;42.652;23.364;2022-07-29T12:29:54;7.53;;;5.60;;
33190;SDS011;19554;42.652;23.364;2022-07-29T12:32:21;6.47;;;5.88;;
33190;SDS011;19554;42.652;23.364;2022-07-29T12:34:46;7.88;;;5.40;;
33190;SDS011;19554;42.652;23.364;2022-07-29T12:37:12;6.10;;;5.57;;
33190;SDS011;19554;42.652;23.364;2022-07-29T12:39:38;6.30;;;5.70;;
33190;SDS011;19554;42.652;23.364;2022-07-29T12:42:14;6.28;;;5.43;;
33190;SDS011;19554;42.652;23.364;2022-07-29T12:44:47;5.82;;;5.25;;
33190;SDS011;19554;42.652;23.364;2022-07-29T12:47:14;7.35;;;4.70;;
33190;SDS011;19554;42.652;23.364;2022-07-29T12:49:40;6.60;;;5.53;;
33190;SDS011;19554;42.652;23.364;2022-07-29T12:54:50;5.90;;;5.28;;
33190;SDS011;19554;42.652;23.364;2022-07-29T12:57:15;7.35;;;5.93;;
33190;SDS011;19554;42.652;23.364;2022-07-29T12:59:41;6.25;;;5.38;;
33190;SDS011;19554;42.652;23.364;2022-07-29T13:02:06;6.43;;;5.25;;
33190;SDS011;19554;42.652;23.364;2022-07-29T13:04:54;6.57;;;4.93;;
33190;SDS011;19554;42.652;23.364;2022-07-29T13:07:24;7.47;;;5.28;;
33190;SDS011;19554;42.652;23.364;2022-07-29T13:09:52;7.13;;;5.80;;
33190;SDS011;19554;42.652;23.364;2022-07-29T13:12:17;6.28;;;5.50;;
33190;SDS011;19554;42.652;23.364;2022-07-29T13:14:44;7.43;;;5.57;;
33190;SDS011;19554;42.652;23.364;2022-07-29T13:17:13;9.43;;;5.60;;
33190;SDS011;19554;42.652;23.364;2022-07-29T13:19:39;7.15;;;5.70;;
33190;SDS011;19554;42.652;23.364;2022-07-29T13:22:07;8.73;;;5.55;;
33190;SDS011;19554;42.652;23.364;2022-07-29T13:27:16;8.30;;;5.80;;
33190;SDS011;19554;42.652;23.364;2022-07-29T13:29:42;7.38;;;5.45;;
33190;SDS011;19554;42.652;23.364;2022-07-29T13:32:08;6.30;;;5.70;;
33190;SDS011;19554;42.652;23.364;2022-07-29T13:34:34;5.28;;;4.72;;
33190;SDS011;19554;42.652;23.364;2022-07-29T13:36:59;8.98;;;5.18;;
33190;SDS011;19554;42.652;23.364;2022-07-29T13:39:25;8.13;;;5.22;;
33190;SDS011;19554;42.652;23.364;2022-07-29T13:41:50;8.45;;;5.47;;
33190;SDS011;19554;42.652;23.364;2022-07-29T13:44:16;6.72;;;5.22;;
33190;SDS011;19554;42.652;23.364;2022-07-29T13:46:42;7.07;;;5.70;;
33190;SDS011;19554;42.652;23.364;2022-07-29T13:49:07;6.28;;;5.28;;
33190;SDS011;19554;42.652;23.364;2022-07-29T13:51:32;6.70;;;6.00;;
33190;SDS011;19554;42.652;23.364;2022-07-29T13:53:58;6.18;;;5.20;;
33190;SDS011;19554;42.652;23.364;2022-07-29T13:56:23;7.30;;;5.65;;
33190;SDS011;19554;42.652;23.364;2022-07-29T13:58:49;9.10;;;5.63;;
33190;SDS011;19554;42.652;23.364;2022-07-29T14:01:14;6.15;;;4.65;;
33190;SDS011;19554;42.652;23.364;2022-07-29T14:03:40;7.20;;;5.35;;
33190;SDS011;19554;42.652;23.364;2022-07-29T14:06:08;9.00;;;6.03;;
33190;SDS011;19554;42.652;23.364;2022-07-29T14:08:33;5.90;;;5.40;;
33190;SDS011;19554;42.652;23.364;2022-07-29T14:10:59;6.68;;;5.07;;
33190;SDS011;19554;42.652;23.364;2022-07-29T14:13:24;9.00;;;5.60;;
33190;SDS011;19554;42.652;23.364;2022-07-29T14:15:50;6.00;;;5.40;;
33190;SDS011;19554;42.652;23.364;2022-07-29T14:18:15;5.38;;;4.88;;
33190;SDS011;19554;42.652;23.364;2022-07-29T14:20:41;6.40;;;5.28;;
33190;SDS011;19554;42.652;23.364;2022-07-29T14:23:06;5.68;;;5.18;;
33190;SDS011;19554;42.652;23.364;2022-07-29T14:25:31;5.82;;;5.18;;
33190;SDS011;19554;42.652;23.364;2022-07-29T14:27:57;6.45;;;5.85;;
33190;SDS011;19554;42.652;23.364;2022-07-29T14:30:22;5.45;;;4.95;;
33190;SDS011;19554;42.652;23.364;2022-07-29T14:32:48;5.88;;;5.38;;
33190;SDS011;19554;42.652;23.364;2022-07-29T14:35:13;5.68;;;4.85;;
33190;SDS011;19554;42.652;23.364;2022-07-29T14:37:39;6.95;;;4.90;;
33190;SDS011;19554;42.652;23.364;2022-07-29T14:40:05;5.32;;;4.82;;
33190;SDS011;19554;42.652;23.364;2022-07-29T14:42:30;7.18;;;5.60;;
33190;SDS011;19554;42.652;23.364;2022-07-29T14:44:56;5.57;;;5.07;;
33190;SDS011;19554;42.652;23.364;2022-07-29T14:47:22;6.32;;;5.45;;
33190;SDS011;19554;42.652;23.364;2022-07-29T14:49:48;8.13;;;5.30;;
33190;SDS011;19554;42.652;23.364;2022-07-29T14:52:14;10.43;;;5.90;;
33190;SDS011;19554;42.652;23.364;2022-07-29T14:54:39;7.25;;;5.20;;
33190;SDS011;19554;42.652;23.364;2022-07-29T14:57:05;6.47;;;5.05;;
33190;SDS011;19554;42.652;23.364;2022-07-29T14:59:30;7.45;;;5.78;;
33190;SDS011;19554;42.652;23.364;2022-07-29T15:01:55;9.52;;;5.45;;
33190;SDS011;19554;42.652;23.364;2022-07-29T15:04:21;8.52;;;5.25;;
33190;SDS011;19554;42.652;23.364;2022-07-29T15:06:47;6.78;;;6.07;;
33190;SDS011;19554;42.652;23.364;2022-07-29T15:09:12;8.48;;;5.85;;
33190;SDS011;19554;42.652;23.364;2022-07-29T15:11:38;6.95;;;6.05;;
33190;SDS011;19554;42.652;23.364;2022-07-29T15:14:03;5.72;;;5.22;;
33190;SDS011;19554;42.652;23.364;2022-07-29T15:16:29;13.73;;;6.85;;
33190;SDS011;19554;42.652;23.364;2022-07-29T15:18:54;7.18;;;5.65;;
33190;SDS011;19554;42.652;23.364;2022-07-29T15:21:22;6.00;;;5.50;;
33190;SDS011;19554;42.652;23.364;2022-07-29T15:23:48;5.80;;;5.18;;
33190;SDS011;19554;42.652;23.364;2022-07-29T15:26:13;6.63;;;5.10;;
33190;SDS011;19554;42.652;23.364;2022-07-29T15:28:39;7.18;;;5.00;;
33190;SDS011;19554;42.652;23.364;2022-07-29T15:31:05;6.05;;;5.00;;
33190;SDS011;19554;42.652;23.364;2022-07-29T15:33:30;6.72;;;4.97;;
33190;SDS011;19554;42.652;23.364;2022-07-29T15:35:56;5.28;;;4.78;;
33190;SDS011;19554;42.652;23.364;2022-07-29T15:38:21;6.30;;;5.05;;
33190;SDS011;19554;42.652;23.364;2022-07-29T15:40:47;5.28;;;4.78;;
33190;SDS011;19554;42.652;23.364;2022-07-29T15:43:13;6.82;;;4.60;;